Time;durP1;ratioP1;P1;durP2;ratioP2;P2;SDS_P1;SDS_P2;PMS_P1;PMS_P2;Temp;Humidity;BMP_temperature;BMP_pressure;BME280_temperature;BME280_humidity;BME280_pressure;Samples;Min_cycle;Max_cycle;Signal;HPM_P1;HPM_P2
2024/03/26 00:00:55;;;;;;;15.85;7.65;;;;;;;;;;5861844;28;20049;-67
2024/03/26 00:03:44;;;;;;;13.52;5.70;;;;;;;;;;5861155;28;20064;-66
2024/03/26 00:06:34;;;;;;;14.20;7.72;;;;;;;;;;5861131;28;20387;-66
2024/03/26 00:09:24;;;;;;;14.45;7.63;;;;;;;;;;5861554;28;20053;-66
2024/03/26 00:12:14;;;;;;;19.20;8.60;;;;;;;;;;5861209;28;20073;-66
2024/03/26 00:15:04;;;;;;;13.20;6.97;;;;;;;;;;5861386;28;20498;-67
2024/03/26 00:17:54;;;;;;;12.15;6.60;;;;;;;;;;5861675;28;20042;-66
2024/03/26 00:20:43;;;;;;;11.40;7.93;;;;;;;;;;5861098;28;20049;-66
2024/03/26 00:23:33;;;;;;;12.93;6.22;;;;;;;;;;5861049;28;20041;-66
2024/03/26 00:26:23;;;;;;;18.25;7.45;;;;;;;;;;5861111;28;20045;-66
2024/03/26 00:29:13;;;;;;;13.68;6.80;;;;;;;;;;5861056;28;20462;-66
2024/03/26 00:32:03;;;;;;;21.42;7.75;;;;;;;;;;5860776;28;20050;-66
2024/03/26 00:34:52;;;;;;;18.90;6.72;;;;;;;;;;5861141;28;20049;-66
2024/03/26 00:37:42;;;;;;;12.90;6.57;;;;;;;;;;5860663;28;20045;-66
2024/03/26 00:40:32;;;;;;;15.00;7.70;;;;;;;;;;5861088;28;20120;-66
2024/03/26 00:43:22;;;;;;;8.88;6.85;;;;;;;;;;5860792;28;20050;-66
2024/03/26 00:46:11;;;;;;;14.75;6.82;;;;;;;;;;5860625;28;20060;-66
2024/03/26 00:49:01;;;;;;;14.18;8.27;;;;;;;;;;5860806;28;20041;-67
2024/03/26 00:51:51;;;;;;;19.80;7.35;;;;;;;;;;5861067;28;20395;-66
2024/03/26 00:54:41;;;;;;;18.70;8.57;;;;;;;;;;5860635;28;20105;-66
2024/03/26 00:57:30;;;;;;;16.10;5.95;;;;;;;;;;5860642;28;20119;-66
2024/03/26 01:00:20;;;;;;;16.23;6.72;;;;;;;;;;5860694;28;20045;-66
2024/03/26 01:03:10;;;;;;;10.85;7.45;;;;;;;;;;5879041;28;20415;-66
2024/03/26 01:06:00;;;;;;;12.73;8.00;;;;;;;;;;5884431;28;20131;-66
2024/03/26 01:08:50;;;;;;;17.63;7.93;;;;;;;;;;5900525;28;20049;-66
2024/03/26 01:11:39;;;;;;;8.02;6.15;;;;;;;;;;5883526;28;20045;-66
2024/03/26 01:14:29;;;;;;;12.32;5.60;;;;;;;;;;5883653;28;20418;-66
2024/03/26 01:17:19;;;;;;;9.27;6.90;;;;;;;;;;5883318;28;20044;-66
2024/03/26 01:20:09;;;;;;;13.63;6.72;;;;;;;;;;5883554;28;20068;-66
2024/03/26 01:22:59;;;;;;;21.17;8.65;;;;;;;;;;5900816;28;20053;-66
2024/03/26 01:25:49;;;;;;;13.32;7.60;;;;;;;;;;5900219;28;20052;-66
2024/03/26 01:28:39;;;;;;;11.23;6.32;;;;;;;;;;5883497;28;20040;-66
2024/03/26 01:31:29;;;;;;;15.60;9.20;;;;;;;;;;5883367;28;20037;-66
2024/03/26 01:34:19;;;;;;;13.77;8.02;;;;;;;;;;5883471;28;20048;-66
2024/03/26 01:37:08;;;;;;;18.02;8.55;;;;;;;;;;5883311;28;20037;-66
2024/03/26 01:39:58;;;;;;;22.17;10.77;;;;;;;;;;5884020;28;20083;-66
2024/03/26 01:42:48;;;;;;;16.08;7.53;;;;;;;;;;5883337;28;20099;-66
2024/03/26 01:45:39;;;;;;;39.40;11.48;;;;;;;;;;5899902;28;20483;-66
2024/03/26 01:48:29;;;;;;;28.52;9.20;;;;;;;;;;5866871;28;20056;-66
2024/03/26 01:51:19;;;;;;;22.60;10.60;;;;;;;;;;5883109;28;20041;-66
2024/03/26 01:54:10;;;;;;;26.75;10.55;;;;;;;;;;5883183;28;20087;-66
2024/03/26 01:57:00;;;;;;;18.55;9.73;;;;;;;;;;5884668;28;20490;-66
2024/03/26 01:59:52;;;;;;;17.77;10.60;;;;;;;;;;5887515;28;20064;-66
2024/03/26 02:02:41;;;;;;;21.70;10.55;;;;;;;;;;5887208;28;20099;-66
2024/03/26 02:05:31;;;;;;;14.63;8.27;;;;;;;;;;5887496;28;20049;-66
2024/03/26 02:08:21;;;;;;;21.58;8.93;;;;;;;;;;5887121;28;20080;-66
2024/03/26 02:11:11;;;;;;;22.92;9.38;;;;;;;;;;5887231;28;20112;-66
2024/03/26 02:14:01;;;;;;;17.83;9.65;;;;;;;;;;5870515;28;20045;-66
2024/03/26 02:16:50;;;;;;;26.75;9.63;;;;;;;;;;5870885;28;20098;-66
2024/03/26 02:19:40;;;;;;;14.57;8.43;;;;;;;;;;5886919;28;20379;-66
2024/03/26 02:22:30;;;;;;;20.85;9.88;;;;;;;;;;5886827;28;20052;-66
2024/03/26 02:25:20;;;;;;;14.15;9.95;;;;;;;;;;5886845;28;20053;-66
2024/03/26 02:28:09;;;;;;;19.10;10.27;;;;;;;;;;5886698;28;20041;-66
2024/03/26 02:30:59;;;;;;;30.58;10.48;;;;;;;;;;5887136;28;20414;-66
2024/03/26 02:33:49;;;;;;;36.50;11.48;;;;;;;;;;5886240;28;20049;-66
2024/03/26 02:36:39;;;;;;;15.82;9.02;;;;;;;;;;5886467;28;20052;-66
2024/03/26 02:39:28;;;;;;;20.75;8.15;;;;;;;;;;5886797;28;20391;-66
2024/03/26 02:42:18;;;;;;;19.70;10.02;;;;;;;;;;5903060;28;20132;-66
2024/03/26 02:45:09;;;;;;;22.48;8.82;;;;;;;;;;5903245;28;20049;-66
2024/03/26 02:47:59;;;;;;;20.45;8.07;;;;;;;;;;5903600;28;20060;-66
2024/03/26 02:50:52;;;;;;;28.67;8.20;;;;;;;;;;5902970;28;20045;-66
2024/03/26 02:53:41;;;;;;;10.40;7.75;;;;;;;;;;5902578;28;20048;-66
2024/03/26 02:56:31;;;;;;;14.95;7.88;;;;;;;;;;5886060;28;20048;-66
2024/03/26 02:59:21;;;;;;;17.83;8.88;;;;;;;;;;5886257;28;20055;-66
2024/03/26 03:02:11;;;;;;;17.50;8.40;;;;;;;;;;5886015;28;20694;-66
2024/03/26 03:05:00;;;;;;;13.60;7.32;;;;;;;;;;5886438;28;20057;-66
2024/03/26 03:07:50;;;;;;;13.98;7.07;;;;;;;;;;5902252;28;20450;-66
2024/03/26 03:10:40;;;;;;;11.00;6.22;;;;;;;;;;5885516;28;20057;-66
2024/03/26 03:13:30;;;;;;;16.75;8.73;;;;;;;;;;5885890;28;20387;-66
2024/03/26 03:16:20;;;;;;;21.98;9.27;;;;;;;;;;5885540;28;20368;-66
2024/03/26 03:19:10;;;;;;;10.85;7.05;;;;;;;;;;5885606;28;20115;-66
2024/03/26 03:21:59;;;;;;;16.00;8.77;;;;;;;;;;5902524;28;20109;-66
2024/03/26 03:24:49;;;;;;;11.25;6.30;;;;;;;;;;5885375;28;20396;-66
2024/03/26 03:27:39;;;;;;;22.80;8.05;;;;;;;;;;5885281;28;20067;-66
2024/03/26 03:30:28;;;;;;;9.75;6.35;;;;;;;;;;5901875;28;20044;-66
2024/03/26 03:33:18;;;;;;;11.80;6.95;;;;;;;;;;5885208;28;20052;-66
2024/03/26 03:36:09;;;;;;;17.48;7.57;;;;;;;;;;5885060;28;20057;-66
2024/03/26 03:38:58;;;;;;;18.58;6.47;;;;;;;;;;5902351;28;20495;-66
2024/03/26 03:41:48;;;;;;;13.38;7.13;;;;;;;;;;5885042;28;20075;-66
2024/03/26 03:44:38;;;;;;;10.63;7.15;;;;;;;;;;5885036;28;20083;-66
2024/03/26 03:47:28;;;;;;;17.38;8.25;;;;;;;;;;5884919;28;20048;-67
2024/03/26 03:50:17;;;;;;;18.55;8.10;;;;;;;;;;5885052;28;20049;-66
2024/03/26 03:53:07;;;;;;;16.92;8.38;;;;;;;;;;5884919;28;20052;-66
2024/03/26 03:55:57;;;;;;;13.05;6.90;;;;;;;;;;5885386;28;20048;-73
2024/03/26 03:58:47;;;;;;;13.77;7.35;;;;;;;;;;5885212;28;20486;-73
2024/03/26 04:01:37;;;;;;;16.05;7.63;;;;;;;;;;5884980;28;20052;-73
2024/03/26 04:04:27;;;;;;;15.60;6.82;;;;;;;;;;5885216;28;20486;-73
2024/03/26 04:07:17;;;;;;;18.27;8.02;;;;;;;;;;5901720;28;20412;-73
2024/03/26 04:10:07;;;;;;;11.57;5.93;;;;;;;;;;5884954;28;20049;-72
2024/03/26 04:12:57;;;;;;;10.52;5.82;;;;;;;;;;5902164;28;20048;-73
2024/03/26 04:15:47;;;;;;;16.05;8.00;;;;;;;;;;5884467;28;20533;-73
2024/03/26 04:18:37;;;;;;;17.02;8.23;;;;;;;;;;5884892;28;20115;-73
2024/03/26 04:21:26;;;;;;;17.35;7.57;;;;;;;;;;5884186;28;20040;-73
2024/03/26 04:24:16;;;;;;;13.02;6.43;;;;;;;;;;5901266;28;20044;-73
2024/03/26 04:27:06;;;;;;;22.27;9.48;;;;;;;;;;5884583;28;20113;-73
2024/03/26 04:29:56;;;;;;;21.88;9.82;;;;;;;;;;5884783;28;20076;-73
2024/03/26 04:32:45;;;;;;;18.65;10.23;;;;;;;;;;5884430;28;20063;-73
2024/03/26 04:35:35;;;;;;;19.77;9.63;;;;;;;;;;5884284;28;20517;-73
2024/03/26 04:38:25;;;;;;;13.57;7.85;;;;;;;;;;5884378;28;20041;-73
2024/03/26 04:41:15;;;;;;;12.35;6.78;;;;;;;;;;5884446;28;20048;-73
2024/03/26 04:44:05;;;;;;;22.25;7.45;;;;;;;;;;5884446;28;20049;-73
2024/03/26 04:46:54;;;;;;;16.25;7.30;;;;;;;;;;5884616;28;20056;-73
2024/03/26 04:49:44;;;;;;;12.93;6.80;;;;;;;;;;5884097;28;20045;-74
2024/03/26 04:52:34;;;;;;;13.10;6.80;;;;;;;;;;5884347;28;20045;-73
2024/03/26 04:55:24;;;;;;;18.98;6.82;;;;;;;;;;5884160;28;20049;-73
2024/03/26 04:58:14;;;;;;;11.48;6.43;;;;;;;;;;5884075;28;20419;-74
2024/03/26 05:01:03;;;;;;;12.32;7.82;;;;;;;;;;5884419;28;20052;-73
2024/03/26 05:03:53;;;;;;;15.20;6.55;;;;;;;;;;5884708;28;20072;-73
2024/03/26 05:06:43;;;;;;;16.48;9.32;;;;;;;;;;5883997;28;20076;-73
2024/03/26 05:09:34;;;;;;;14.95;6.55;;;;;;;;;;5884497;28;20107;-73
2024/03/26 05:12:23;;;;;;;10.48;6.13;;;;;;;;;;5901179;28;20044;-73
2024/03/26 05:15:13;;;;;;;10.13;6.60;;;;;;;;;;5884280;28;20361;-73
2024/03/26 05:18:03;;;;;;;13.27;5.72;;;;;;;;;;5883949;28;20136;-72
2024/03/26 05:20:53;;;;;;;15.07;6.20;;;;;;;;;;5884333;28;20060;-73
2024/03/26 05:23:43;;;;;;;15.13;5.25;;;;;;;;;;5883704;28;20511;-73
2024/03/26 05:26:33;;;;;;;9.60;5.80;;;;;;;;;;5883594;28;20418;-73
2024/03/26 05:29:22;;;;;;;13.43;6.85;;;;;;;;;;5900360;28;20048;-73
2024/03/26 05:32:12;;;;;;;8.82;5.65;;;;;;;;;;5901471;28;20091;-73
2024/03/26 05:35:02;;;;;;;13.93;6.35;;;;;;;;;;5888109;28;20049;-73
2024/03/26 05:37:54;;;;;;;18.25;6.95;;;;;;;;;;5888114;28;20056;-73
2024/03/26 05:40:44;;;;;;;13.77;7.03;;;;;;;;;;5887940;28;20045;-73
2024/03/26 05:43:34;;;;;;;11.15;4.72;;;;;;;;;;5888029;28;20049;-73
2024/03/26 05:46:39;;;;;;;10.23;5.45;;;;;;;;;;5858130;28;25310;-73
2024/03/26 05:49:29;;;;;;;10.93;5.55;;;;;;;;;;5859029;28;20071;-72
2024/03/26 05:52:18;;;;;;;9.15;5.05;;;;;;;;;;5887931;28;20417;-72
2024/03/26 05:55:08;;;;;;;12.70;5.75;;;;;;;;;;5887416;28;20132;-72
2024/03/26 05:57:58;;;;;;;14.10;6.88;;;;;;;;;;5888057;28;20404;-73
2024/03/26 06:00:49;;;;;;;8.18;5.60;;;;;;;;;;5887417;28;20045;-73
2024/03/26 06:03:38;;;;;;;16.60;5.18;;;;;;;;;;5887577;28;20486;-73
2024/03/26 06:06:28;;;;;;;6.85;4.32;;;;;;;;;;5874820;28;20652;-73
2024/03/26 06:09:18;;;;;;;9.48;4.40;;;;;;;;;;5887054;28;20045;-72
2024/03/26 06:12:09;;;;;;;9.68;5.28;;;;;;;;;;5870559;28;20091;-72
2024/03/26 06:14:58;;;;;;;9.80;5.03;;;;;;;;;;5904124;28;20052;-72
2024/03/26 06:17:48;;;;;;;9.13;3.83;;;;;;;;;;5887044;28;20049;-72
2024/03/26 06:20:38;;;;;;;5.50;3.65;;;;;;;;;;5886896;28;20037;-72
2024/03/26 06:23:28;;;;;;;4.63;3.75;;;;;;;;;;5903735;28;20079;-72
2024/03/26 06:26:17;;;;;;;4.35;3.08;;;;;;;;;;5886865;28;20052;-72
2024/03/26 06:29:07;;;;;;;4.70;4.20;;;;;;;;;;5903345;28;20048;-72
2024/03/26 06:31:57;;;;;;;9.70;3.45;;;;;;;;;;5887214;28;20067;-72
2024/03/26 06:34:50;;;;;;;9.88;4.05;;;;;;;;;;5886633;28;20053;-71
2024/03/26 06:37:40;;;;;;;4.50;2.67;;;;;;;;;;5886665;28;20040;-71
2024/03/26 06:40:29;;;;;;;4.53;3.15;;;;;;;;;;5886694;28;20041;-72
2024/03/26 06:43:20;;;;;;;4.55;2.72;;;;;;;;;;5885959;28;20079;-72
2024/03/26 06:46:10;;;;;;;6.50;2.85;;;;;;;;;;5886385;28;20056;-72
2024/03/26 06:48:59;;;;;;;4.82;2.65;;;;;;;;;;5886775;28;20051;-72
2024/03/26 06:51:49;;;;;;;3.35;3.05;;;;;;;;;;5902980;28;20059;-72
2024/03/26 06:54:39;;;;;;;5.03;4.35;;;;;;;;;;5886030;28;20060;-73
2024/03/26 06:57:29;;;;;;;7.43;4.15;;;;;;;;;;5886222;28;20056;-73
2024/03/26 07:00:19;;;;;;;3.45;3.08;;;;;;;;;;5902803;28;20072;-73
2024/03/26 07:03:10;;;;;;;5.70;3.65;;;;;;;;;;5885816;28;20510;-73
2024/03/26 07:06:00;;;;;;;6.22;3.88;;;;;;;;;;5886447;28;20052;-73
2024/03/26 07:08:49;;;;;;;5.05;2.67;;;;;;;;;;5885724;28;20772;-74
2024/03/26 07:11:40;;;;;;;4.50;2.95;;;;;;;;;;5902439;28;20046;-74
2024/03/26 07:14:30;;;;;;;6.43;3.78;;;;;;;;;;5885537;28;20056;-74
2024/03/26 07:17:20;;;;;;;6.55;3.40;;;;;;;;;;5885636;28;20144;-74
2024/03/26 07:20:11;;;;;;;4.63;2.60;;;;;;;;;;5885469;28;20049;-74
2024/03/26 07:23:00;;;;;;;3.65;2.47;;;;;;;;;;5885952;28;20059;-74
2024/03/26 07:25:50;;;;;;;3.13;2.13;;;;;;;;;;5885678;28;20045;-74
2024/03/26 07:28:40;;;;;;;3.55;1.88;;;;;;;;;;5885221;28;20506;-74
2024/03/26 07:31:30;;;;;;;3.00;2.17;;;;;;;;;;5885340;28;20045;-73
2024/03/26 07:34:19;;;;;;;2.42;2.00;;;;;;;;;;5885155;28;20402;-73
2024/03/26 07:37:09;;;;;;;5.53;2.63;;;;;;;;;;5901679;28;20075;-73
2024/03/26 07:39:59;;;;;;;3.28;1.63;;;;;;;;;;5885656;28;20099;-73
2024/03/26 07:42:49;;;;;;;2.13;1.70;;;;;;;;;;5884858;28;20067;-73
2024/03/26 07:45:38;;;;;;;3.65;1.88;;;;;;;;;;5884721;28;20081;-72
2024/03/26 07:48:29;;;;;;;2.95;1.00;;;;;;;;;;5885175;28;20124;-72
2024/03/26 07:51:18;;;;;;;1.92;1.45;;;;;;;;;;5884928;28;20094;-73
2024/03/26 07:54:09;;;;;;;7.53;2.50;;;;;;;;;;5884171;28;20045;-73
2024/03/26 07:56:59;;;;;;;3.50;1.42;;;;;;;;;;5885063;28;20406;-72
2024/03/26 07:59:48;;;;;;;2.65;1.67;;;;;;;;;;5884490;28;20052;-72
2024/03/26 08:02:38;;;;;;;0.93;0.73;;;;;;;;;;5884548;28;20040;-72
2024/03/26 08:05:28;;;;;;;1.30;1.17;;;;;;;;;;5884605;28;20411;-72
2024/03/26 08:08:19;;;;;;;5.18;1.13;;;;;;;;;;5884465;28;20045;-73
2024/03/26 08:11:15;;;;;;;1.30;1.15;;;;;;;;;;5884342;28;20063;-72
2024/03/26 08:14:05;;;;;;;1.77;0.75;;;;;;;;;;5867734;28;20049;-72
2024/03/26 08:16:54;;;;;;;3.95;1.17;;;;;;;;;;5885000;28;20064;-72
2024/03/26 08:19:44;;;;;;;0.63;0.52;;;;;;;;;;5884309;28;20567;-72
2024/03/26 08:22:34;;;;;;;2.60;0.57;;;;;;;;;;5884306;28;20576;-72
2024/03/26 08:25:24;;;;;;;1.00;0.88;;;;;;;;;;5901101;28;20045;-72
2024/03/26 08:28:13;;;;;;;1.02;0.80;;;;;;;;;;5884216;28;20125;-72
2024/03/26 08:31:03;;;;;;;2.22;1.58;;;;;;;;;;5884097;28;20049;-72
2024/03/26 08:33:53;;;;;;;16.45;8.48;;;;;;;;;;5884333;28;20064;-72
2024/03/26 08:36:43;;;;;;;8.48;5.75;;;;;;;;;;5883973;28;20510;-72
2024/03/26 08:39:33;;;;;;;4.80;3.67;;;;;;;;;;5900674;28;20125;-72
2024/03/26 08:42:23;;;;;;;2.85;1.92;;;;;;;;;;5883962;28;20049;-72
2024/03/26 08:45:13;;;;;;;38.38;28.65;;;;;;;;;;5883828;28;20037;-73
2024/03/26 08:48:03;;;;;;;23.45;15.43;;;;;;;;;;5900348;28;20426;-72
2024/03/26 08:50:52;;;;;;;53.88;25.92;;;;;;;;;;5884404;28;20056;-72
2024/03/26 08:53:42;;;;;;;29.45;13.68;;;;;;;;;;5900368;28;20122;-73
2024/03/26 08:56:32;;;;;;;26.60;11.52;;;;;;;;;;5900554;28;20044;-73
2024/03/26 08:59:22;;;;;;;13.88;5.38;;;;;;;;;;5900522;28;20037;-73
2024/03/26 09:02:12;;;;;;;9.27;5.70;;;;;;;;;;5883976;28;20148;-73
2024/03/26 09:05:03;;;;;;;27.33;12.50;;;;;;;;;;5900476;28;20041;-72
2024/03/26 09:07:53;;;;;;;14.75;7.57;;;;;;;;;;5888348;28;20414;-73
2024/03/26 09:10:43;;;;;;;29.40;14.85;;;;;;;;;;5905189;28;20052;-74
2024/03/26 09:13:39;;;;;;;16.98;5.65;;;;;;;;;;5888205;28;20048;-72
2024/03/26 09:16:29;;;;;;;18.52;8.43;;;;;;;;;;5888417;28;20044;-72
2024/03/26 09:19:18;;;;;;;28.40;7.65;;;;;;;;;;5888165;28;20445;-73
2024/03/26 09:22:08;;;;;;;46.67;16.67;;;;;;;;;;5888525;28;20076;-72
2024/03/26 09:24:58;;;;;;;28.70;8.38;;;;;;;;;;5905389;28;20049;-73
2024/03/26 09:27:48;;;;;;;5.90;2.60;;;;;;;;;;5887931;28;20045;-73
2024/03/26 09:30:37;;;;;;;13.40;5.50;;;;;;;;;;5888017;28;20048;-73
2024/03/26 09:33:27;;;;;;;43.63;17.35;;;;;;;;;;5887781;28;20045;-73
2024/03/26 09:36:17;;;;;;;11.15;5.30;;;;;;;;;;5887985;28;20363;-73
2024/03/26 09:39:08;;;;;;;33.40;13.63;;;;;;;;;;5887670;28;20103;-73
2024/03/26 09:42:01;;;;;;;35.58;16.52;;;;;;;;;;5905029;28;20057;-73
2024/03/26 09:44:51;;;;;;;4.07;2.88;;;;;;;;;;5887524;28;20048;-72
2024/03/26 09:47:43;;;;;;;27.02;9.73;;;;;;;;;;5887620;28;20040;-72
2024/03/26 09:50:35;;;;;;;54.28;20.55;;;;;;;;;;5854727;28;20041;-73
2024/03/26 09:53:26;;;;;;;26.58;10.18;;;;;;;;;;5887705;28;20416;-73
2024/03/26 09:56:17;;;;;;;21.90;10.52;;;;;;;;;;5887380;28;20444;-73
2024/03/26 09:59:07;;;;;;;6.85;4.00;;;;;;;;;;5904044;28;20053;-73
2024/03/26 10:02:06;;;;;;;23.42;8.48;;;;;;;;;;5887794;28;20137;-72
2024/03/26 10:04:56;;;;;;;2.72;1.65;;;;;;;;;;5887948;28;20518;-72
2024/03/26 10:07:49;;;;;;;5.28;1.40;;;;;;;;;;5887230;28;20068;-73
2024/03/26 10:10:42;;;;;;;1.15;0.90;;;;;;;;;;5887202;28;20045;-72
2024/03/26 10:13:32;;;;;;;6.15;3.78;;;;;;;;;;5887245;28;20128;-73
2024/03/26 10:16:22;;;;;;;2.33;0.70;;;;;;;;;;5870579;28;20040;-73
2024/03/26 10:19:12;;;;;;;2.53;1.30;;;;;;;;;;5886062;28;20379;-73
2024/03/26 10:22:01;;;;;;;0.95;0.82;;;;;;;;;;5887198;28;20057;-72
2024/03/26 10:24:51;;;;;;;4.78;0.90;;;;;;;;;;5887318;28;20547;-72
2024/03/26 10:27:41;;;;;;;8.82;3.50;;;;;;;;;;5903498;28;20568;-73
2024/03/26 10:30:31;;;;;;;3.75;1.40;;;;;;;;;;5886904;28;20056;-72
2024/03/26 10:33:23;;;;;;;2.17;0.90;;;;;;;;;;5886647;28;20115;-72
2024/03/26 10:36:19;;;;;;;19.10;10.02;;;;;;;;;;5886719;28;20056;-73
2024/03/26 10:39:12;;;;;;;7.32;4.07;;;;;;;;;;5902994;28;20056;-73
2024/03/26 10:42:03;;;;;;;2.47;1.17;;;;;;;;;;5903345;28;20079;-72
2024/03/26 10:44:57;;;;;;;3.00;1.80;;;;;;;;;;5886959;28;20525;-72
2024/03/26 10:47:49;;;;;;;1.63;1.08;;;;;;;;;;5886483;28;20394;-73
2024/03/26 10:50:42;;;;;;;0.13;0.13;;;;;;;;;;5902986;28;20056;-72
2024/03/26 10:53:34;;;;;;;0.65;0.45;;;;;;;;;;5902908;28;20098;-72
2024/03/26 10:56:25;;;;;;;3.35;0.95;;;;;;;;;;5886354;28;20060;-72
2024/03/26 10:59:15;;;;;;;1.10;0.95;;;;;;;;;;5869396;28;20415;-72
2024/03/26 11:02:07;;;;;;;0.70;0.70;;;;;;;;;;5886293;28;20099;-73
2024/03/26 11:04:58;;;;;;;2.63;0.68;;;;;;;;;;5869676;28;20056;-72
2024/03/26 11:07:48;;;;;;;0.68;0.68;;;;;;;;;;5885642;28;20045;-73
2024/03/26 11:10:58;;;;;;;0.82;0.60;;;;;;;;;;5885856;28;20037;-72
2024/03/26 11:13:58;;;;;;;1.85;0.70;;;;;;;;;;5902369;28;20045;-72
2024/03/26 11:16:49;;;;;;;2.72;1.63;;;;;;;;;;5869674;28;20408;-73
2024/03/26 11:19:40;;;;;;;1.55;0.50;;;;;;;;;;5885634;28;20521;-73
2024/03/26 11:22:39;;;;;;;1.05;0.65;;;;;;;;;;5885611;28;20525;-72
2024/03/26 11:25:30;;;;;;;1.88;1.20;;;;;;;;;;5885952;28;20112;-73
2024/03/26 11:28:21;;;;;;;1.95;1.02;;;;;;;;;;5885593;28;20055;-73
2024/03/26 11:31:11;;;;;;;1.55;1.17;;;;;;;;;;5902368;28;20056;-71
2024/03/26 11:34:03;;;;;;;4.28;0.95;;;;;;;;;;5885446;28;20045;-72
2024/03/26 11:36:55;;;;;;;2.85;1.05;;;;;;;;;;5886130;28;20057;-72
2024/03/26 11:39:46;;;;;;;3.85;1.77;;;;;;;;;;5885479;28;20056;-73
2024/03/26 11:42:37;;;;;;;0.73;0.73;;;;;;;;;;5885413;28;20201;-72
2024/03/26 11:45:27;;;;;;;0.63;0.63;;;;;;;;;;5885538;28;20043;-73
2024/03/26 11:48:16;;;;;;;0.57;0.47;;;;;;;;;;5885290;28;20414;-73
2024/03/26 11:51:06;;;;;;;6.18;1.08;;;;;;;;;;5885321;28;20053;-73
2024/03/26 11:53:57;;;;;;;0.68;0.68;;;;;;;;;;5902249;28;20112;-73
2024/03/26 11:56:46;;;;;;;0.98;0.55;;;;;;;;;;5901932;28;20060;-73
2024/03/26 11:59:36;;;;;;;0.38;0.38;;;;;;;;;;5868631;28;20083;-72
2024/03/26 12:02:26;;;;;;;0.65;0.63;;;;;;;;;;5901626;28;20502;-72
2024/03/26 12:05:16;;;;;;;0.55;0.55;;;;;;;;;;5884962;28;20084;-74
2024/03/26 12:08:06;;;;;;;2.33;1.00;;;;;;;;;;5884846;28;20442;-73
2024/03/26 12:10:55;;;;;;;0.85;0.43;;;;;;;;;;5885536;28;20498;-73
2024/03/26 12:13:45;;;;;;;1.58;0.77;;;;;;;;;;5884809;28;20114;-72
2024/03/26 12:16:38;;;;;;;0.35;0.35;;;;;;;;;;5901604;28;20048;-73
2024/03/26 12:19:28;;;;;;;0.55;0.45;;;;;;;;;;5885277;28;20671;-73
2024/03/26 12:22:19;;;;;;;0.98;0.73;;;;;;;;;;5884914;28;20045;-73
2024/03/26 12:25:10;;;;;;;0.85;0.50;;;;;;;;;;5884558;28;20095;-72
2024/03/26 12:28:01;;;;;;;0.98;0.70;;;;;;;;;;5901855;28;20418;-73
2024/03/26 12:30:51;;;;;;;1.45;0.43;;;;;;;;;;5868388;28;20049;-72
2024/03/26 12:33:41;;;;;;;0.63;0.57;;;;;;;;;;5884304;28;20072;-73
2024/03/26 12:36:31;;;;;;;0.35;0.35;;;;;;;;;;5901168;28;20069;-73
2024/03/26 12:39:20;;;;;;;1.00;0.70;;;;;;;;;;5884005;28;20132;-73
2024/03/26 12:42:10;;;;;;;5.75;0.52;;;;;;;;;;5883720;28;20106;-73
2024/03/26 12:45:00;;;;;;;1.27;0.70;;;;;;;;;;5884864;28;20044;-73
2024/03/26 12:47:50;;;;;;;0.50;0.50;;;;;;;;;;5884328;28;20502;-73
2024/03/26 12:50:40;;;;;;;1.75;0.40;;;;;;;;;;5884071;28;20148;-73
2024/03/26 12:53:29;;;;;;;0.63;0.63;;;;;;;;;;5900462;28;20040;-73
2024/03/26 12:56:22;;;;;;;0.63;0.50;;;;;;;;;;5884094;28;20049;-73
2024/03/26 12:59:12;;;;;;;0.68;0.68;;;;;;;;;;5882971;28;20048;-72
2024/03/26 13:02:04;;;;;;;3.65;0.90;;;;;;;;;;5884161;28;20049;-72
2024/03/26 13:04:53;;;;;;;0.68;0.52;;;;;;;;;;5900901;28;20045;-73
2024/03/26 13:07:43;;;;;;;0.60;0.50;;;;;;;;;;5873704;28;20047;-73
2024/03/26 13:10:33;;;;;;;2.50;0.70;;;;;;;;;;5883403;28;20132;-73
2024/03/26 13:13:23;;;;;;;1.17;0.90;;;;;;;;;;5879830;28;20053;-72
2024/03/26 13:16:13;;;;;;;2.72;0.80;;;;;;;;;;5860317;28;20053;-72
2024/03/26 13:19:03;;;;;;;1.33;0.77;;;;;;;;;;5859431;28;20057;-72
2024/03/26 13:21:53;;;;;;;16.67;0.80;;;;;;;;;;5861513;28;20057;-73
2024/03/26 13:24:43;;;;;;;2.05;0.68;;;;;;;;;;5870625;28;20045;-73
2024/03/26 13:27:33;;;;;;;0.30;0.30;;;;;;;;;;5876113;28;20053;-73
2024/03/26 13:30:23;;;;;;;0.60;0.55;;;;;;;;;;5860561;28;20041;-74
2024/03/26 13:33:13;;;;;;;0.63;0.50;;;;;;;;;;5858903;28;20042;-73
2024/03/26 13:36:04;;;;;;;1.30;0.73;;;;;;;;;;5878506;28;20049;-72
2024/03/26 13:38:54;;;;;;;0.77;0.50;;;;;;;;;;5866487;28;20045;-73
2024/03/26 13:41:44;;;;;;;0.57;0.43;;;;;;;;;;5860909;28;20053;-73
2024/03/26 13:44:34;;;;;;;1.27;0.70;;;;;;;;;;5860777;28;20139;-74
2024/03/26 13:47:24;;;;;;;0.32;0.32;;;;;;;;;;5860675;28;20665;-73
2024/03/26 13:50:13;;;;;;;0.45;0.30;;;;;;;;;;5860781;28;20053;-73
2024/03/26 13:53:03;;;;;;;0.75;0.50;;;;;;;;;;5861649;28;20049;-73
2024/03/26 13:55:53;;;;;;;0.73;0.47;;;;;;;;;;5881523;28;20049;-72
2024/03/26 13:58:43;;;;;;;2.60;0.47;;;;;;;;;;5871394;28;20079;-73
2024/03/26 14:01:33;;;;;;;1.05;0.70;;;;;;;;;;5882206;28;20103;-72
2024/03/26 14:04:22;;;;;;;0.85;0.52;;;;;;;;;;5862539;28;20053;-72
2024/03/26 14:07:12;;;;;;;1.60;0.60;;;;;;;;;;5863954;28;20053;-73
2024/03/26 14:10:03;;;;;;;0.63;0.40;;;;;;;;;;5863633;28;20049;-72
2024/03/26 14:12:53;;;;;;;0.55;0.17;;;;;;;;;;5864646;28;20080;-73
2024/03/26 14:15:43;;;;;;;2.35;0.68;;;;;;;;;;5864109;28;20506;-72
2024/03/26 14:18:33;;;;;;;0.45;0.45;;;;;;;;;;5864140;28;20052;-73
2024/03/26 14:21:23;;;;;;;1.13;0.60;;;;;;;;;;5864177;28;20053;-72
2024/03/26 14:24:12;;;;;;;0.35;0.28;;;;;;;;;;5863876;28;20053;-72
2024/03/26 14:27:03;;;;;;;0.80;0.52;;;;;;;;;;5863945;28;20043;-71
2024/03/26 14:29:53;;;;;;;2.05;0.77;;;;;;;;;;5880873;28;20045;-73
2024/03/26 14:32:43;;;;;;;22.23;0.85;;;;;;;;;;5863576;28;20051;-73
2024/03/26 14:35:33;;;;;;;4.50;0.70;;;;;;;;;;5863662;28;20136;-73
2024/03/26 14:38:23;;;;;;;1.67;0.82;;;;;;;;;;5863729;28;20406;-73
2024/03/26 14:41:13;;;;;;;0.50;0.50;;;;;;;;;;5863477;28;20049;-73
2024/03/26 14:44:08;;;;;;;0.77;0.68;;;;;;;;;;5863681;28;20061;-74
2024/03/26 14:46:58;;;;;;;0.85;0.63;;;;;;;;;;5847849;28;20044;-74
2024/03/26 14:49:48;;;;;;;1.02;0.50;;;;;;;;;;5846824;28;20053;-73
2024/03/26 14:52:37;;;;;;;2.58;0.90;;;;;;;;;;5863160;28;20388;-74
2024/03/26 14:55:27;;;;;;;1.08;0.70;;;;;;;;;;5863058;28;20042;-73
2024/03/26 14:58:17;;;;;;;0.75;0.45;;;;;;;;;;5863097;28;20050;-74
2024/03/26 15:01:07;;;;;;;0.70;0.70;;;;;;;;;;5879779;28;20053;-74
2024/03/26 15:03:57;;;;;;;0.63;0.63;;;;;;;;;;5863069;28;20485;-73
2024/03/26 15:06:46;;;;;;;0.98;0.45;;;;;;;;;;5862995;28;20529;-73
2024/03/26 15:09:36;;;;;;;3.65;1.20;;;;;;;;;;5862737;28;20046;-73
2024/03/26 15:12:26;;;;;;;0.40;0.40;;;;;;;;;;5862831;28;20057;-74
2024/03/26 15:15:16;;;;;;;0.60;0.55;;;;;;;;;;5862797;28;20049;-73
2024/03/26 15:18:06;;;;;;;0.73;0.52;;;;;;;;;;5862643;28;20546;-73
2024/03/26 15:20:56;;;;;;;0.65;0.45;;;;;;;;;;5879689;28;20065;-73
2024/03/26 15:23:45;;;;;;;2.40;0.82;;;;;;;;;;5862458;28;20474;-73
2024/03/26 15:31:58;;;;;;;1.35;0.75;;;;;;;;;;5862590;28;20046;-73
2024/03/26 15:32:56;;;;;;;1.10;1.00;;;;;;;;;;5862382;28;20045;-73
2024/03/26 15:35:46;;;;;;;1.25;0.95;;;;;;;;;;5862200;28;20126;-74
2024/03/26 15:38:36;;;;;;;2.97;0.90;;;;;;;;;;5862192;28;20045;-73
2024/03/26 15:41:26;;;;;;;13.52;7.20;;;;;;;;;;5862282;28;20041;-73
2024/03/26 15:44:18;;;;;;;176.18;86.20;;;;;;;;;;5861953;28;20084;-73
2024/03/26 15:47:08;;;;;;;17.38;9.70;;;;;;;;;;5862191;28;20518;-73
2024/03/26 15:49:57;;;;;;;17.92;14.25;;;;;;;;;;5862416;28;20198;-74
2024/03/26 15:52:47;;;;;;;14.13;9.50;;;;;;;;;;5861834;28;20414;-73
2024/03/26 15:55:37;;;;;;;4.40;2.45;;;;;;;;;;5861761;28;20049;-73
2024/03/26 15:58:27;;;;;;;19.80;10.77;;;;;;;;;;5861594;28;20049;-73
2024/03/26 16:01:17;;;;;;;7.00;3.88;;;;;;;;;;5861927;28;20049;-73
2024/03/26 16:04:07;;;;;;;65.93;31.45;;;;;;;;;;5861511;28;20061;-72
2024/03/26 16:06:56;;;;;;;30.88;15.35;;;;;;;;;;5862074;28;20095;-73
2024/03/26 16:09:48;;;;;;;37.47;18.60;;;;;;;;;;5861324;28;20143;-73
2024/03/26 16:12:37;;;;;;;56.78;27.80;;;;;;;;;;5861381;28;20072;-73
2024/03/26 16:15:27;;;;;;;38.80;18.65;;;;;;;;;;5860689;28;20405;-73
2024/03/26 16:18:18;;;;;;;20.30;11.40;;;;;;;;;;5861275;28;20387;-73
2024/03/26 16:21:08;;;;;;;26.25;10.13;;;;;;;;;;5861307;28;20049;-73
2024/03/26 16:23:58;;;;;;;28.50;14.48;;;;;;;;;;5845350;28;20045;-73
2024/03/26 16:26:47;;;;;;;45.70;21.08;;;;;;;;;;5861172;28;20059;-73
2024/03/26 16:29:37;;;;;;;41.78;22.15;;;;;;;;;;5861176;28;20068;-73
2024/03/26 16:32:27;;;;;;;46.47;22.20;;;;;;;;;;5860969;28;20528;-73
2024/03/26 16:35:18;;;;;;;34.28;14.95;;;;;;;;;;5860934;28;20045;-73
2024/03/26 16:38:09;;;;;;;41.42;18.50;;;;;;;;;;5860854;28;20045;-72
2024/03/26 16:40:59;;;;;;;34.55;17.92;;;;;;;;;;5861425;28;20053;-73
2024/03/26 16:43:49;;;;;;;34.38;17.05;;;;;;;;;;5860943;28;20163;-73
2024/03/26 16:46:39;;;;;;;33.45;19.73;;;;;;;;;;5861039;28;20053;-73
2024/03/26 16:49:28;;;;;;;18.42;11.95;;;;;;;;;;5877570;28;20506;-73
2024/03/26 16:52:18;;;;;;;32.03;21.83;;;;;;;;;;5860715;28;20056;-73
2024/03/26 16:55:09;;;;;;;20.05;10.52;;;;;;;;;;5860839;28;20049;-72